Time;durP1;ratioP1;P1;durP2;ratioP2;P2;SDS_P1;SDS_P2;PMS_P1;PMS_P2;Temp;Humidity;BMP_temperature;BMP_pressure;BME280_temperature;BME280_humidity;BME280_pressure;Samples;Min_cycle;Max_cycle;Signal;HPM_P1;HPM_P2
2024/02/12 00:00:23;;;;;;;0.17;0.17;;;;;;;7.98;80.46;92741.78;5063232;28;20024;-73
2024/02/12 00:02:49;;;;;;;0.20;0.20;;;;;;;7.90;78.88;92732.03;5063031;28;20017;-73
2024/02/12 00:05:14;;;;;;;1.90;0.50;;;;;;;7.94;79.81;92717.00;5062993;28;20025;-73
2024/02/12 00:07:40;;;;;;;2.65;0.40;;;;;;;8.07;81.57;92707.22;5062874;28;20025;-73
2024/02/12 00:10:12;;;;;;;0.63;0.30;;;;;;;8.12;80.78;92703.59;5062959;28;20082;-73
2024/02/12 00:12:38;;;;;;;;;;;;;;;8.16;80.51;92704.50;5063158;28;20028;-73
2024/02/12 00:15:06;;;;;;;0.55;0.20;;;;;;;8.05;80.98;92696.16;5062800;28;19946;-73
2024/02/12 00:17:32;;;;;;;0.98;0.22;;;;;;;8.11;81.32;92692.22;5062676;28;20220;-73
2024/02/12 00:19:57;;;;;;;1.92;0.10;;;;;;;8.24;81.58;92677.91;5062610;28;20033;-73
2024/02/12 00:22:25;;;;;;;3.10;0.30;;;;;;;8.31;82.53;92682.66;5062774;28;20021;-73
2024/02/12 00:24:51;;;;;;;5.60;0.50;;;;;;;8.28;81.82;92666.59;5062958;28;20029;-73
2024/02/12 00:27:17;;;;;;;1.00;0.22;;;;;;;8.35;81.75;92664.22;5062687;28;20069;-73
2024/02/12 00:29:43;;;;;;;0.95;0.20;;;;;;;8.41;82.05;92674.31;5062447;28;20017;-73
2024/02/12 00:32:10;;;;;;;0.95;0.32;;;;;;;8.49;82.17;92675.34;5062675;28;20025;-71
2024/02/12 00:34:36;;;;;;;3.40;0.30;;;;;;;8.45;81.42;92693.03;5062589;28;20032;-70
2024/02/12 00:37:02;;;;;;;2.50;0.38;;;;;;;8.52;81.40;92695.13;5062482;28;20032;-70
2024/02/12 00:39:30;;;;;;;0.85;0.43;;;;;;;8.51;81.42;92697.03;5062264;28;20117;-70
2024/02/12 00:41:57;;;;;;;1.02;0.30;;;;;;;8.57;80.81;92686.97;5062402;28;20104;-70
2024/02/12 00:44:22;;;;;;;1.60;0.50;;;;;;;8.57;79.83;92697.59;5062534;28;20017;-71
2024/02/12 00:46:48;;;;;;;5.13;0.63;;;;;;;8.49;80.06;92685.16;5062448;28;20196;-70
2024/02/12 00:49:14;;;;;;;1.52;0.73;;;;;;;8.44;81.36;92683.50;5062516;28;20101;-70
2024/02/12 00:51:41;;;;;;;1.77;1.02;;;;;;;8.44;82.63;92689.56;5062409;28;20029;-70
2024/02/12 00:54:08;;;;;;;2.28;1.08;;;;;;;8.40;82.84;92690.53;5062395;28;20096;-70
2024/02/12 00:56:34;;;;;;;3.95;1.10;;;;;;;8.40;83.46;92687.88;5062330;28;20036;-70
2024/02/12 00:59:00;;;;;;;4.97;1.10;;;;;;;8.44;82.56;92694.13;5062102;28;20214;-71
2024/02/12 01:01:25;;;;;;;1.30;0.70;;;;;;;8.49;82.74;92703.75;5062212;28;20025;-71
2024/02/12 01:03:51;;;;;;;2.88;0.80;;;;;;;8.51;82.99;92689.06;5062453;28;20112;-71
2024/02/12 01:06:16;;;;;;;2.78;0.70;;;;;;;8.54;82.64;92693.69;5062467;28;21558;-71
2024/02/12 01:08:43;;;;;;;7.35;0.63;;;;;;;8.56;82.43;92696.03;5062315;28;20025;-71
2024/02/12 01:11:08;;;;;;;3.75;0.80;;;;;;;8.56;82.15;92702.13;5061031;28;20021;-71
2024/02/12 01:13:34;;;;;;;4.32;0.98;;;;;;;8.55;81.92;92694.50;5062090;28;20100;-71
2024/02/12 01:15:59;;;;;;;3.92;0.70;;;;;;;8.57;81.70;92682.44;5062110;28;20021;-71
2024/02/12 01:18:26;;;;;;;5.03;0.98;;;;;;;8.59;81.94;92674.16;5062204;28;20349;-71
2024/02/12 01:20:52;;;;;;;3.65;0.80;;;;;;;8.57;82.08;92674.47;5060985;28;20331;-72
2024/02/12 01:23:18;;;;;;;3.15;0.68;;;;;;;8.62;82.22;92674.25;5062021;28;20020;-72
2024/02/12 01:25:44;;;;;;;4.13;1.02;;;;;;;8.60;82.08;92675.69;5063758;28;20021;-72
2024/02/12 01:28:10;;;;;;;4.30;0.80;;;;;;;8.61;81.43;92680.69;5065933;28;20017;-72
2024/02/12 01:30:36;;;;;;;3.28;1.52;;;;;;;8.60;81.31;92668.50;5065864;28;20417;-72
2024/02/12 01:33:06;;;;;;;7.95;1.17;;;;;;;8.56;81.55;92685.41;5065889;28;20246;-72
2024/02/12 01:35:31;;;;;;;8.38;1.20;;;;;;;8.54;82.14;92696.34;5065585;28;20028;-71
2024/02/12 01:37:57;;;;;;;6.47;1.13;;;;;;;8.50;81.72;92698.13;5065486;28;20243;-71
2024/02/12 01:40:22;;;;;;;9.52;1.42;;;;;;;8.50;81.59;92707.97;5065824;28;20029;-71
2024/02/12 01:42:53;;;;;;;6.03;1.58;;;;;;;8.53;82.16;92713.41;5065499;28;20436;-71
2024/02/12 01:45:23;;;;;;;5.78;1.23;;;;;;;8.53;82.60;92713.41;5064268;28;20029;-71
2024/02/12 01:47:57;;;;;;;8.18;1.17;;;;;;;8.52;82.10;92701.22;5065603;28;20046;-71
2024/02/12 01:50:24;;;;;;;6.30;1.40;;;;;;;8.52;81.84;92693.25;5065708;28;20045;-71
2024/02/12 01:52:50;;;;;;;6.95;1.80;;;;;;;8.52;81.68;92679.97;5065397;28;20032;-71
2024/02/12 01:55:16;;;;;;;9.25;1.17;;;;;;;8.52;82.40;92674.66;5065431;28;20040;-71
2024/02/12 01:57:46;;;;;;;11.65;1.20;;;;;;;8.51;82.44;92667.03;5065237;28;20024;-71
2024/02/12 02:00:13;;;;;;;7.18;1.70;;;;;;;8.51;82.58;92670.47;5065328;28;20025;-71
2024/02/12 02:02:43;;;;;;;7.97;2.78;;;;;;;8.55;82.72;92670.59;5065152;28;20043;-72
2024/02/12 02:05:10;;;;;;;7.78;2.63;;;;;;;8.56;82.68;92670.25;5065267;28;20250;-71
2024/02/12 02:07:36;;;;;;;16.27;2.15;;;;;;;8.49;82.66;92662.06;5065198;28;20095;-72
2024/02/12 02:10:09;;;;;;;12.32;3.30;;;;;;;8.48;82.69;92665.03;5065039;28;20346;-72
2024/02/12 02:12:38;;;;;;;8.15;2.10;;;;;;;8.50;83.02;92660.94;5065092;28;20262;-71
2024/02/12 02:15:05;;;;;;;13.18;3.00;;;;;;;8.50;83.12;92663.59;5064976;28;20029;-72
2024/02/12 02:17:32;;;;;;;7.47;2.13;;;;;;;8.49;82.87;92650.63;5064975;28;20028;-73
2024/02/12 02:19:59;;;;;;;16.60;2.67;;;;;;;8.44;82.31;92651.63;5064910;28;20092;-71
2024/02/12 02:22:29;;;;;;;9.30;2.78;;;;;;;8.34;82.10;92668.72;5064989;28;20028;-71
2024/02/12 02:24:56;;;;;;;8.77;2.92;;;;;;;8.28;82.42;92664.72;5064868;28;20325;-71
2024/02/12 02:27:22;;;;;;;13.75;3.55;;;;;;;8.27;82.92;92684.41;5064914;28;20020;-71
2024/02/12 02:29:49;;;;;;;9.70;2.90;;;;;;;8.28;82.87;92693.91;5064695;28;20024;-71
2024/02/12 02:32:15;;;;;;;8.82;4.10;;;;;;;8.26;82.43;92698.00;5064473;28;20028;-71
2024/02/12 02:34:40;;;;;;;9.40;2.85;;;;;;;8.19;82.18;92704.63;5064492;28;20088;-71
2024/02/12 02:37:06;;;;;;;10.15;3.40;;;;;;;8.18;82.49;92689.81;5064465;28;20330;-71
2024/02/12 02:39:31;;;;;;;15.88;4.22;;;;;;;8.17;82.68;92682.94;5064397;28;20112;-71
2024/02/12 02:41:57;;;;;;;9.75;2.72;;;;;;;8.13;82.87;92697.97;5064311;28;20028;-71
2024/02/12 02:44:22;;;;;;;9.68;3.08;;;;;;;8.14;82.63;92696.06;5064512;28;20091;-71
2024/02/12 02:46:48;;;;;;;9.75;2.40;;;;;;;8.05;82.60;92698.81;5064299;28;20024;-71
2024/02/12 02:49:14;;;;;;;8.18;2.95;;;;;;;8.03;82.52;92701.78;5064380;28;20017;-70
2024/02/12 02:51:41;;;;;;;10.05;2.90;;;;;;;7.98;83.33;92695.91;5064346;28;20095;-70
2024/02/12 02:54:08;;;;;;;8.13;2.83;;;;;;;7.99;83.98;92686.84;5064204;28;20029;-70
2024/02/12 02:56:34;;;;;;;11.48;3.50;;;;;;;7.99;84.18;92700.88;5064267;28;20295;-70
2024/02/12 02:59:00;;;;;;;5.43;3.03;;;;;;;8.01;83.96;92708.53;5064122;28;20036;-70
2024/02/12 03:01:28;;;;;;;6.13;2.97;;;;;;;8.02;84.03;92699.47;5064174;28;20028;-69
2024/02/12 03:03:55;;;;;;;13.40;2.30;;;;;;;8.01;83.99;92703.22;5064189;28;20021;-69
2024/02/12 03:06:21;;;;;;;8.90;2.20;;;;;;;8.01;83.87;92698.69;5064166;28;20084;-69
2024/02/12 03:08:50;;;;;;;3.78;1.85;;;;;;;7.99;84.25;92681.53;5064034;28;20319;-69
2024/02/12 03:11:25;;;;;;;5.35;2.20;;;;;;;7.98;84.67;92675.47;5063865;28;20033;-70
2024/02/12 03:13:52;;;;;;;8.70;2.20;;;;;;;7.98;84.89;92682.66;5064018;28;20250;-70
2024/02/12 03:16:21;;;;;;;8.50;2.70;;;;;;;8.05;84.80;92688.19;5063884;28;20021;-70
2024/02/12 03:18:46;;;;;;;8.40;2.70;;;;;;;8.10;84.84;92680.06;5063784;28;20239;-70
2024/02/12 03:21:20;;;;;;;9.40;2.85;;;;;;;8.10;84.98;92669.44;5063660;28;20036;-70
2024/02/12 03:23:48;;;;;;;10.85;3.20;;;;;;;8.15;85.00;92661.25;5063749;28;20029;-70
2024/02/12 03:26:15;;;;;;;11.90;2.83;;;;;;;8.16;84.97;92659.38;5063536;28;20035;-71
2024/02/12 03:28:41;;;;;;;6.43;2.20;;;;;;;8.17;84.73;92658.28;5062328;28;20025;-71
2024/02/12 03:31:07;;;;;;;8.57;2.95;;;;;;;8.10;84.76;92652.72;5063518;28;20048;-71
2024/02/12 03:33:33;;;;;;;7.30;2.75;;;;;;;8.12;85.01;92639.91;5063491;28;20025;-71
2024/02/12 03:35:59;;;;;;;9.50;2.92;;;;;;;8.10;85.25;92620.88;5062234;28;20055;-71
2024/02/12 03:38:24;;;;;;;6.30;2.88;;;;;;;8.12;85.57;92592.91;5063413;28;20033;-71
2024/02/12 03:40:50;;;;;;;6.93;2.60;;;;;;;8.11;85.62;92580.75;5062274;28;20063;-71
2024/02/12 03:43:17;;;;;;;7.75;2.65;;;;;;;8.12;85.57;92579.66;5063429;28;20029;-71
2024/02/12 03:45:45;;;;;;;10.05;2.50;;;;;;;8.12;85.14;92587.63;5063301;28;20029;-71
2024/02/12 04:01:52;;;;;;;6.78;2.72;;;;;;;7.61;87.18;92563.91;5063365;28;20024;-71
2024/02/12 04:04:19;;;;;;;13.27;2.17;;;;;;;7.64;86.68;92541.25;5062951;28;20028;-71
2024/02/12 04:06:45;;;;;;;8.45;2.70;;;;;;;7.48;86.94;92496.00;5063039;28;20021;-70
2024/02/12 04:09:10;;;;;;;13.80;2.60;;;;;;;7.51;86.12;92483.97;5062889;28;20311;-71
2024/02/12 04:11:39;;;;;;;5.35;2.13;;;;;;;7.45;85.36;92475.47;5062960;28;20021;-71
2024/02/12 04:14:06;;;;;;;5.88;1.60;;;;;;;7.43;85.38;92475.03;5063047;28;20106;-71
2024/02/12 04:16:32;;;;;;;7.03;2.60;;;;;;;7.43;85.72;92473.13;5062615;28;20021;-70
2024/02/12 04:18:58;;;;;;;19.40;2.22;;;;;;;7.39;85.58;92493.44;5062530;28;20031;-70
2024/02/12 04:21:24;;;;;;;9.77;2.10;;;;;;;7.39;85.26;92497.97;5062924;28;20106;-70
2024/02/12 04:23:52;;;;;;;7.88;2.00;;;;;;;7.39;85.49;92506.69;5062734;28;20021;-71
2024/02/12 04:26:18;;;;;;;13.20;1.40;;;;;;;7.34;83.92;92536.03;5062507;28;20017;-71
2024/02/12 04:28:44;;;;;;;3.63;1.50;;;;;;;7.21;84.06;92571.56;5062577;28;20029;-71
2024/02/12 04:31:11;;;;;;;9.52;2.70;;;;;;;7.06;84.52;92561.50;5062635;28;20037;-71
2024/02/12 04:33:37;;;;;;;10.05;2.30;;;;;;;7.02;85.05;92556.88;5062515;28;20319;-71
2024/02/12 04:36:03;;;;;;;9.93;2.50;;;;;;;6.95;86.55;92546.00;5062510;28;20074;-71
2024/02/12 04:38:33;;;;;;;15.10;2.58;;;;;;;6.87;85.59;92543.41;5062176;28;20041;-70
2024/02/12 04:40:58;;;;;;;18.17;3.00;;;;;;;6.75;83.72;92550.16;5062667;28;20016;-70
2024/02/12 04:43:24;;;;;;;14.77;2.75;;;;;;;6.61;86.42;92561.00;5062534;28;20023;-71
2024/02/12 04:45:51;;;;;;;16.33;2.80;;;;;;;6.52;84.81;92565.56;5062441;28;20017;-71
2024/02/12 04:48:17;;;;;;;24.80;2.65;;;;;;;6.41;81.26;92561.69;5062412;28;20311;-71
2024/02/12 04:50:45;;;;;;;35.30;4.57;;;;;;;6.37;79.79;92548.34;5062279;28;20040;-72
2024/02/12 04:53:11;;;;;;;20.25;2.90;;;;;;;6.51;80.09;92552.63;5062340;28;20017;-71
2024/02/12 04:55:36;;;;;;;25.27;2.33;;;;;;;6.54;80.21;92536.13;5062285;28;20341;-71
2024/02/12 04:58:02;;;;;;;16.10;2.42;;;;;;;6.58;80.32;92550.28;5062264;28;20096;-72
2024/02/12 05:00:30;;;;;;;22.02;2.25;;;;;;;6.72;79.99;92537.56;5063734;28;20045;-72
2024/02/12 05:02:59;;;;;;;17.95;2.80;;;;;;;6.89;81.23;92557.09;5066092;28;20021;-72
2024/02/12 05:05:26;;;;;;;20.58;2.92;;;;;;;6.99;81.87;92564.69;5066058;28;20028;-72
2024/02/12 05:07:51;;;;;;;28.08;5.47;;;;;;;6.99;81.43;92576.03;5066466;28;20221;-72
2024/02/12 05:10:17;;;;;;;37.28;4.22;;;;;;;7.01;80.44;92565.91;5066149;28;20092;-72
2024/02/12 05:12:42;;;;;;;38.45;5.55;;;;;;;6.96;80.91;92566.09;5066424;28;20028;-71
2024/02/12 05:15:09;;;;;;;19.25;3.78;;;;;;;7.01;80.57;92586.31;5066216;28;20262;-71
2024/02/12 05:23:07;;;;;;;28.27;2.58;;;;;;;7.02;80.90;92591.31;5065646;28;20071;-71
2024/02/12 05:25:33;;;;;;;21.10;2.35;;;;;;;6.98;81.43;92595.69;5065769;28;20028;-71
2024/02/12 05:28:00;;;;;;;23.13;2.42;;;;;;;7.05;81.91;92597.06;5065759;28;20021;-71
2024/02/12 05:30:25;;;;;;;23.02;3.60;;;;;;;7.15;82.95;92602.75;5065992;28;20025;-71
2024/02/12 05:32:51;;;;;;;29.75;4.28;;;;;;;7.21;83.71;92606.78;5065965;28;20323;-71
2024/02/12 05:35:17;;;;;;;17.55;4.40;;;;;;;7.28;83.64;92587.69;5065709;28;20029;-71
2024/02/12 05:37:43;;;;;;;14.77;3.67;;;;;;;7.35;83.65;92601.22;5065566;28;20319;-72
2024/02/12 05:40:09;;;;;;;15.05;5.55;;;;;;;7.41;83.77;92609.75;5065471;28;20025;-71
2024/02/12 05:42:35;;;;;;;21.67;4.47;;;;;;;7.47;83.64;92610.31;5065461;28;20039;-71
2024/02/12 05:45:01;;;;;;;26.55;5.57;;;;;;;7.49;83.52;92614.22;5065456;28;20024;-72
2024/02/12 05:47:26;;;;;;;26.45;4.75;;;;;;;7.54;83.24;92621.19;5065380;28;20330;-71
2024/02/12 05:49:52;;;;;;;22.70;4.78;;;;;;;7.58;83.30;92614.16;5065477;28;20017;-71
2024/02/12 05:52:18;;;;;;;14.02;4.40;;;;;;;7.63;83.61;92624.56;5065543;28;20044;-71
2024/02/12 05:54:43;;;;;;;31.65;4.47;;;;;;;7.69;83.87;92620.59;5065329;28;20330;-72
2024/02/12 05:57:09;;;;;;;37.03;5.93;;;;;;;7.68;83.59;92624.38;5065230;28;20028;-72
2024/02/12 05:59:35;;;;;;;27.27;4.65;;;;;;;7.63;82.94;92611.28;5065265;28;20017;-71
2024/02/12 06:02:02;;;;;;;23.23;4.13;;;;;;;7.62;82.91;92602.56;5064828;28;20196;-71
2024/02/12 06:04:29;;;;;;;31.73;4.65;;;;;;;7.58;82.33;92611.50;5065232;28;20025;-71
2024/02/12 06:06:55;;;;;;;23.50;3.15;;;;;;;7.61;81.98;92621.44;5064967;28;20025;-71
2024/02/12 06:09:20;;;;;;;14.35;4.18;;;;;;;7.52;80.96;92615.44;5063748;28;20024;-72
2024/02/12 06:11:45;;;;;;;19.73;2.92;;;;;;;7.48;80.95;92611.91;5064536;28;20020;-71
2024/02/12 06:14:11;;;;;;;22.23;2.97;;;;;;;7.53;81.43;92622.28;5064983;28;20243;-71
2024/02/12 06:16:37;;;;;;;18.48;2.63;;;;;;;7.49;81.46;92629.34;5065124;28;20100;-71
2024/02/12 06:19:03;;;;;;;28.85;3.42;;;;;;;7.42;81.86;92617.38;5064682;28;20029;-71
2024/02/12 06:21:30;;;;;;;20.27;4.25;;;;;;;7.44;81.97;92609.09;5064914;28;20047;-72
2024/02/12 06:23:56;;;;;;;14.35;3.72;;;;;;;7.36;82.74;92609.94;5064600;28;20378;-72
2024/02/12 06:26:21;;;;;;;27.48;3.53;;;;;;;7.37;82.96;92603.56;5064521;28;20025;-72
2024/02/12 06:28:47;;;;;;;20.23;3.55;;;;;;;7.33;82.85;92606.06;5064695;28;20017;-73
2024/02/12 06:31:13;;;;;;;28.27;5.05;;;;;;;7.16;83.24;92604.28;5064254;28;20055;-72
2024/02/12 06:33:39;;;;;;;41.75;5.53;;;;;;;7.10;83.71;92592.34;5064631;28;20235;-72
2024/02/12 06:36:04;;;;;;;14.30;4.80;;;;;;;7.09;83.97;92593.44;5064603;28;20032;-72
2024/02/12 06:38:30;;;;;;;23.58;5.60;;;;;;;7.12;84.27;92584.06;5064153;28;20040;-72
2024/02/12 06:40:56;;;;;;;27.35;6.72;;;;;;;7.17;84.34;92583.91;5063388;28;20145;-72
2024/02/12 06:43:21;;;;;;;22.98;4.25;;;;;;;7.17;85.25;92582.00;5064559;28;20028;-71
2024/02/12 06:45:48;;;;;;;18.95;5.00;;;;;;;7.18;84.88;92582.78;5064300;28;20020;-70
2024/02/12 06:48:14;;;;;;;20.67;4.80;;;;;;;7.18;84.80;92574.81;5062916;28;20024;-70
2024/02/12 06:50:39;;;;;;;23.13;5.68;;;;;;;7.18;84.76;92577.47;5064151;28;20404;-71
2024/02/12 06:53:04;;;;;;;22.80;6.28;;;;;;;7.17;84.97;92575.94;5064271;28;20035;-72
2024/02/12 06:55:31;;;;;;;29.73;7.25;;;;;;;7.21;85.17;92582.16;5064568;28;20303;-70
2024/02/12 06:57:57;;;;;;;16.05;5.80;;;;;;;7.27;85.98;92575.56;5064096;28;20029;-70
2024/02/12 07:00:22;;;;;;;25.45;5.88;;;;;;;7.35;84.21;92569.41;5062936;28;20029;-72
2024/02/12 07:02:48;;;;;;;16.17;4.57;;;;;;;7.36;83.88;92570.94;5064048;28;20046;-71
2024/02/12 07:05:17;;;;;;;20.02;4.22;;;;;;;7.47;83.71;92581.97;5064158;28;20024;-70
2024/02/12 07:07:46;;;;;;;22.17;5.25;;;;;;;7.57;83.95;92594.81;5064040;28;20368;-70
2024/02/12 07:10:12;;;;;;;20.08;4.72;;;;;;;7.63;83.99;92588.22;5063801;28;20092;-70
2024/02/12 07:12:40;;;;;;;24.30;5.53;;;;;;;7.72;83.64;92579.41;5063855;28;20037;-70
2024/02/12 07:15:09;;;;;;;22.30;6.93;;;;;;;7.83;83.62;92597.22;5063752;28;20032;-69
2024/02/12 07:17:35;;;;;;;20.23;8.90;;;;;;;7.90;83.77;92570.19;5063741;28;20425;-70
2024/02/12 07:20:05;;;;;;;22.05;9.48;;;;;;;7.98;83.69;92579.19;5063892;28;20025;-70
2024/02/12 07:22:30;;;;;;;19.40;7.60;;;;;;;8.04;82.82;92591.13;5062823;28;20031;-70
2024/02/12 07:24:56;;;;;;;19.27;8.27;;;;;;;8.07;82.62;92590.47;5063633;28;20053;-70
2024/02/12 07:27:21;;;;;;;16.40;7.85;;;;;;;8.10;82.27;92597.78;5062528;28;20020;-71
2024/02/12 07:29:48;;;;;;;25.20;8.75;;;;;;;8.18;81.27;92586.31;5063376;28;20044;-71
2024/02/12 07:32:14;;;;;;;24.95;10.02;;;;;;;8.23;81.16;92599.34;5063679;28;20235;-71
2024/02/12 07:34:44;;;;;;;29.02;11.18;;;;;;;8.21;80.96;92587.50;5063574;28;20062;-70
2024/02/12 07:37:09;;;;;;;30.25;10.07;;;;;;;8.25;80.56;92601.69;5063601;28;20021;-71
2024/02/12 07:39:38;;;;;;;20.58;8.30;;;;;;;8.37;80.25;92603.59;5063295;28;20040;-71
2024/02/12 07:42:06;;;;;;;19.58;8.52;;;;;;;8.44;80.26;92601.19;5063437;28;20029;-72
2024/02/12 07:44:32;;;;;;;20.65;8.27;;;;;;;8.45;80.29;92608.06;5063668;28;20052;-73
2024/02/12 07:46:57;;;;;;;23.33;8.15;;;;;;;8.53;80.07;92612.50;5062985;28;20311;-75
2024/02/12 07:49:32;;;;;;;13.13;7.47;;;;;;;8.54;79.86;92618.56;5064520;28;20017;-74
2024/02/12 07:51:59;;;;;;;17.02;9.00;;;;;;;8.55;79.86;92620.13;5062385;28;20047;-73
2024/02/12 07:54:26;;;;;;;16.33;7.75;;;;;;;8.57;80.44;92617.94;5063369;28;20029;-77
2024/02/12 07:56:53;;;;;;;17.85;6.53;;;;;;;8.54;80.37;92627.31;5062985;28;20096;-73
2024/02/12 07:59:19;;;;;;;16.17;6.18;;;;;;;8.55;79.42;92625.44;5063001;28;20359;-72
2024/02/12 08:01:44;;;;;;;13.30;5.90;;;;;;;8.62;78.89;92636.28;5063011;28;20040;-72
2024/02/12 08:04:09;;;;;;;17.10;5.40;;;;;;;8.68;79.05;92628.88;5062872;28;20027;-70
2024/02/12 08:06:35;;;;;;;15.30;5.38;;;;;;;8.74;79.16;92633.66;5063016;28;20055;-70
2024/02/12 08:09:01;;;;;;;17.33;6.07;;;;;;;8.77;79.36;92634.84;5061532;28;20082;-91
2024/02/12 08:11:28;;;;;;;22.23;7.18;;;;;;;8.87;78.73;92642.41;5064136;28;20100;-88
2024/02/12 08:13:57;;;;;;;19.70;6.95;;;;;;;8.91;78.70;92653.91;5064734;28;20027;-91
2024/02/12 08:16:22;;;;;;;18.17;6.53;;;;;;;8.89;78.65;92653.47;5064666;28;20059;-90
2024/02/12 08:18:48;;;;;;;26.13;7.13;;;;;;;8.95;78.29;92651.38;5062959;28;20025;-92
2024/02/12 08:21:14;;;;;;;24.45;8.02;;;;;;;9.10;78.10;92661.34;5065388;28;20017;-91
2024/02/12 08:23:39;;;;;;;29.23;9.60;;;;;;;9.16;78.20;92662.69;5063853;28;20040;-92
2024/02/12 08:26:05;;;;;;;15.75;9.73;;;;;;;9.23;78.25;92672.75;5064899;28;20062;-92
2024/02/12 08:28:31;;;;;;;25.02;11.50;;;;;;;9.25;78.24;92657.25;5064431;28;20012;-93
2024/02/12 08:30:57;;;;;;;37.55;10.90;;;;;;;9.32;77.99;92667.31;5063341;28;20017;-93
2024/02/12 08:33:26;;;;;;;25.10;9.95;;;;;;;9.37;77.86;92665.22;5064608;28;20062;-93
2024/02/12 08:35:52;;;;;;;16.33;7.38;;;;;;;9.42;77.59;92665.00;5063258;28;20040;-91
2024/02/12 08:38:18;;;;;;;26.08;8.15;;;;;;;9.51;76.40;92664.88;5063020;28;20048;-90
2024/02/12 08:40:43;;;;;;;24.27;7.45;;;;;;;9.56;76.47;92672.59;5063832;28;20025;-90
2024/02/12 08:43:09;;;;;;;30.08;8.15;;;;;;;9.57;76.22;92668.84;5063473;28;20028;-90
2024/02/12 08:45:35;;;;;;;20.90;7.78;;;;;;;9.66;75.72;92668.72;5067947;28;20127;-90
2024/02/12 08:48:00;;;;;;;27.77;9.00;;;;;;;9.73;74.69;92666.28;5067905;28;20020;-91
2024/02/12 08:50:25;;;;;;;25.52;8.95;;;;;;;9.87;74.96;92676.56;5066290;28;20021;-90
2024/02/12 08:52:53;;;;;;;22.50;8.30;;;;;;;9.92;74.43;92672.88;5066377;28;20320;-90
2024/02/12 08:55:18;;;;;;;17.05;7.03;;;;;;;9.95;74.07;92678.31;5065362;28;20028;-89
2024/02/12 08:57:44;;;;;;;20.05;6.47;;;;;;;10.01;73.15;92665.50;5064566;28;20048;-90
2024/02/12 09:00:10;;;;;;;20.42;5.63;;;;;;;9.96;73.02;92669.19;5065037;28;20130;-90
2024/02/12 09:02:36;;;;;;;23.23;5.93;;;;;;;10.06;73.52;92662.63;5064273;28;20044;-89
2024/02/12 09:05:03;;;;;;;20.58;5.95;;;;;;;10.10;72.76;92671.50;5066441;28;20021;-90
2024/02/12 09:07:29;;;;;;;15.20;6.35;;;;;;;10.17;73.34;92665.56;5063929;28;20052;-89
2024/02/12 09:09:57;;;;;;;15.93;6.35;;;;;;;10.25;73.68;92659.31;5063899;28;20197;-91
2024/02/12 09:12:23;;;;;;;22.17;6.45;;;;;;;10.36;73.78;92641.78;5064301;28;20032;-91
2024/02/12 09:14:49;;;;;;;15.38;4.63;;;;;;;10.39;73.65;92632.34;5063053;28;20331;-91
2024/02/12 09:17:15;;;;;;;15.13;5.03;;;;;;;10.46;72.88;92653.03;5064650;28;20025;-91
2024/02/12 09:19:41;;;;;;;23.65;4.90;;;;;;;10.43;72.21;92647.28;5065172;28;20041;-89
2024/02/12 09:22:09;;;;;;;20.95;4.72;;;;;;;10.34;72.22;92649.34;5066122;28;20025;-92
2024/02/12 09:24:38;;;;;;;17.80;5.13;;;;;;;10.46;70.91;92653.81;5064187;28;20017;-91
2024/02/12 09:27:05;;;;;;;13.88;4.85;;;;;;;10.51;70.78;92645.59;5063662;28;20029;-91
2024/02/12 09:29:30;;;;;;;15.68;3.95;;;;;;;10.60;71.11;92642.75;5062810;28;20101;-92
2024/02/12 09:31:56;;;;;;;25.85;4.43;;;;;;;10.67;70.70;92647.50;5063790;28;20036;-90
2024/02/12 09:34:21;;;;;;;15.98;4.28;;;;;;;10.78;70.68;92638.63;5062622;28;20103;-92
2024/02/12 09:36:46;;;;;;;15.57;4.68;;;;;;;10.90;70.26;92632.44;5064283;28;20031;-90
2024/02/12 09:39:12;;;;;;;17.85;4.75;;;;;;;10.96;69.83;92636.41;5062849;28;20083;-91
2024/02/12 09:41:37;;;;;;;16.67;4.70;;;;;;;11.04;69.87;92632.03;5064735;28;20017;-91
2024/02/12 09:44:06;;;;;;;20.35;5.50;;;;;;;11.06;70.13;92623.69;5063912;28;20316;-91
2024/02/12 09:46:36;;;;;;;23.73;5.95;;;;;;;11.08;70.38;92627.53;5066755;28;20088;-91
2024/02/12 09:49:03;;;;;;;12.45;5.55;;;;;;;11.04;70.38;92624.03;5067705;28;20066;-91
2024/02/12 09:51:30;;;;;;;23.52;4.93;;;;;;;11.12;70.49;92624.97;5067513;28;20103;-91
2024/02/12 09:53:57;;;;;;;12.88;5.60;;;;;;;11.21;70.44;92628.22;5067000;28;20021;-91
2024/02/12 09:56:24;;;;;;;18.52;5.18;;;;;;;11.30;70.64;92620.03;5067142;28;20021;-90
2024/02/12 09:58:50;;;;;;;18.05;5.15;;;;;;;11.36;69.29;92624.00;5067192;28;20043;-90
2024/02/12 10:01:15;;;;;;;20.52;3.97;;;;;;;11.38;68.60;92616.41;5067473;28;20120;-90
2024/02/12 10:03:44;;;;;;;19.33;4.43;;;;;;;11.42;68.17;92606.59;5067139;28;20031;-90
2024/02/12 10:06:12;;;;;;;17.98;4.20;;;;;;;11.46;67.04;92591.44;5065713;28;20032;-91
2024/02/12 10:08:38;;;;;;;24.10;4.15;;;;;;;11.36;64.82;92597.31;5067386;28;20025;-91
2024/02/12 10:11:06;;;;;;;20.48;4.60;;;;;;;11.24;64.84;92619.53;5067080;28;20088;-91
2024/02/12 10:13:33;;;;;;;20.90;4.15;;;;;;;11.18;67.00;92615.59;5067147;28;20079;-90
2024/02/12 10:15:58;;;;;;;23.60;4.25;;;;;;;11.15;67.17;92614.34;5067183;28;20048;-90
2024/02/12 10:18:25;;;;;;;22.73;3.90;;;;;;;11.14;66.42;92601.41;5066540;28;20055;-90
2024/02/12 10:20:50;;;;;;;31.58;4.43;;;;;;;11.12;63.68;92607.06;5065960;28;20336;-89
2024/02/12 10:23:16;;;;;;;18.67;5.97;;;;;;;11.10;64.94;92616.53;5065664;28;20025;-90
2024/02/12 10:25:48;;;;;;;26.52;6.38;;;;;;;11.08;66.29;92614.22;5066889;28;20074;-90
2024/02/12 10:28:15;;;;;;;18.42;4.68;;;;;;;11.15;67.39;92616.25;5066578;28;20032;-90
2024/02/12 10:30:44;;;;;;;15.40;3.80;;;;;;;11.10;67.15;92617.31;5066300;28;20036;-90
2024/02/12 10:33:11;;;;;;;34.47;4.53;;;;;;;11.09;67.76;92609.66;5065765;28;20215;-90
2024/02/12 10:35:45;;;;;;;17.30;4.13;;;;;;;11.13;68.18;92610.50;5065664;28;20108;-91
2024/02/12 10:38:13;;;;;;;18.75;4.47;;;;;;;11.22;67.21;92592.44;5065800;28;20098;-90
2024/02/12 10:41:08;;;;;;;21.20;4.45;;;;;;;11.31;67.62;92590.34;5066981;28;20047;-90
2024/02/12 10:43:33;;;;;;;29.20;4.05;;;;;;;11.30;65.30;92580.03;5057521;28;20079;-91
2024/02/12 10:46:02;;;;;;;23.38;4.18;;;;;;;11.42;66.25;92579.91;5066982;28;20028;-91
2024/02/12 10:48:30;;;;;;;22.50;3.78;;;;;;;11.57;60.27;92575.63;5066509;28;20017;-91
2024/02/12 10:50:56;;;;;;;33.65;3.67;;;;;;;11.58;58.67;92569.16;5065667;28;20025;-90
2024/02/12 10:53:26;;;;;;;20.73;2.85;;;;;;;11.64;57.07;92568.56;5065388;28;20020;-91
2024/02/12 10:55:53;;;;;;;18.42;2.20;;;;;;;11.69;53.43;92567.50;5066587;28;20331;-91
2024/02/12 10:58:18;;;;;;;14.40;1.83;;;;;;;11.82;55.84;92555.56;5066190;28;20032;-91
2024/02/12 11:00:57;;;;;;;21.70;2.67;;;;;;;12.02;55.49;92528.88;5066230;28;20095;-92
2024/02/12 11:03:32;;;;;;;22.25;2.08;;;;;;;11.70;51.42;92538.91;5066114;28;20040;-91
2024/02/12 11:05:59;;;;;;;11.43;2.03;;;;;;;11.55;51.51;92532.53;5066385;28;20035;-90
2024/02/12 11:08:27;;;;;;;15.95;2.63;;;;;;;11.26;51.06;92545.28;5066956;28;20017;-89
2024/02/12 11:10:57;;;;;;;12.15;2.38;;;;;;;11.36;52.80;92547.41;5065171;28;20270;-90
2024/02/12 11:13:34;;;;;;;19.80;2.63;;;;;;;11.48;52.50;92545.69;5065890;28;20021;-89
2024/02/12 11:16:01;;;;;;;12.05;2.00;;;;;;;11.53;50.67;92551.53;5065317;28;20021;-89
2024/02/12 11:18:34;;;;;;;19.30;2.55;;;;;;;11.54;50.92;92544.31;5066369;28;20032;-90
2024/02/12 11:21:00;;;;;;;16.40;1.92;;;;;;;11.56;49.56;92561.53;5064426;28;20029;-92
2024/02/12 11:23:26;;;;;;;23.10;1.50;;;;;;;11.32;51.84;92549.22;5065456;28;20299;-89
2024/02/12 11:25:56;;;;;;;9.05;1.48;;;;;;;11.37;51.42;92540.91;5064612;28;20316;-90
2024/02/12 11:28:25;;;;;;;14.38;1.90;;;;;;;11.40;51.78;92542.91;5065528;28;20187;-91
2024/02/12 11:30:50;;;;;;;15.57;1.88;;;;;;;11.60;53.17;92543.69;5065745;28;20304;-91
2024/02/12 11:33:16;;;;;;;18.90;2.35;;;;;;;11.75;51.42;92536.72;5065283;28;20025;-91
2024/02/12 11:35:41;;;;;;;23.10;1.50;;;;;;;11.80;50.04;92533.75;5064971;28;20025;-90
2024/02/12 11:38:09;;;;;;;15.25;1.80;;;;;;;11.81;50.29;92529.97;5064027;28;20045;-91
2024/02/12 11:40:35;;;;;;;5.68;1.05;;;;;;;11.80;50.50;92525.75;5065087;28;20036;-90
2024/02/12 11:43:01;;;;;;;12.35;1.30;;;;;;;11.74;50.25;92537.84;5065215;28;20039;-89
2024/02/12 11:45:26;;;;;;;13.40;1.80;;;;;;;11.87;51.04;92529.72;5065226;28;20021;-90
2024/02/12 11:47:52;;;;;;;10.23;1.67;;;;;;;11.99;48.72;92534.94;5064923;28;20040;-90
2024/02/12 11:50:29;;;;;;;9.07;1.85;;;;;;;11.99;48.40;92540.25;5065370;28;20075;-90